Rochester, IN

2:12 PM EDT on May 24, 2015 (GMT -0400)
4th Street | | Change Station
CLOSE
Current Station
Personal Weather Station
Location: Rochester, IN
Elevation: 781 ft
Nearby Weather Stations

Elev 781 ft 41.07 °N, 86.20 °W | Updated 2 minutes ago

Mostly Cloudy
Mostly Cloudy
81.1 °F
Feels Like 81 °F
N
3.0
Wind Variable Wind from SSW
Gusts 18.0 mph

Today
High -- | Low -- °F
--% Chance of Precip.
Yesterday
High -- | Low -- °F
Precip. -- in
6:19 AM 9:04 PM
Waxing Crescent, 41% visible
Pressure 30.16 in
Visibility 10.0 miles
Clouds Clear
Heat Index 81 °F
Dew Point 55 °F
Humidity 41%
Rainfall 0.00 in
Snow Depth Not available.
UV 11 out of 12
Pollen 9.80 out of 12
Air Quality Not available.
Flu Activity Sporadic
METAR KRCR 241755Z AUTO 19008G14KT 146V216 10SM CLR 28/14 A3016 RMK AO2

More Conditions Fewer Conditions

Pressure 30.16 in
Visibility 10.0 miles
Clouds Clear
Heat Index 81 °F
Dew Point 55 °F
Humidity 41%
Rainfall 0.00 in
Snow Depth Not available.
UV 11 out of 12
Pollen 9.80 out of 12
Air Quality Not available.
Flu Activity Sporadic
METAR KRCR 241755Z AUTO 19008G14KT 146V216 10SM CLR 28/14 A3016 RMK AO2

More Conditions Fewer Conditions

10-Day Weather Forecast

Almanac

Astronomy

May. 24, 2015 Rise Set
Actual Time
Civil Twilight
Nautical Twilight
Astronomical Twilight
Moon
Length of Visible Light
Length of Day
Tomorrow will be .
, % of the Moon is Illuminated

Today's Extremes

State Highs State Lows

Community

WunderPhotos

Upload Photos

1,823,817 photos uploaded!

WunderBlogs® & News

Nearby

Air Quality

  Air Quality AQ Index Pollutant
Not available.

Snow Depth

Station Depth Elevation

Earthquake Activity

City Distance Mag. Time & Date
Minimum magnitude displayed is 2.5.

Coastal Water Temperatures

Place Temperature

Stations

Nearby Weather Stations

Station Location Temp. Windchill Dew Point Humidity Wind Precip. Elev Updated Type